Time;durP1;ratioP1;P1;durP2;ratioP2;P2;SDS_P1;SDS_P2;PMS_P1;PMS_P2;Temp;Humidity;BMP_temperature;BMP_pressure;BME280_temperature;BME280_humidity;BME280_pressure;Samples;Min_cycle;Max_cycle;Signal;HPM_P1;HPM_P2
2022/04/06 00:01:01;;;;;;;7.05;0.40;;;;;;;;;;5046815;28;20034;-65
2022/04/06 00:03:28;;;;;;;0.47;0.32;;;;;;;;;;5046105;28;20048;-64
2022/04/06 00:05:55;;;;;;;0.30;0.30;;;;;;;;;;5039507;28;20051;-64
2022/04/06 00:08:22;;;;;;;1.70;0.40;;;;;;;;;;5054822;28;20044;-64
2022/04/06 00:10:48;;;;;;;1.08;0.40;;;;;;;;;;5034633;28;20060;-65
2022/04/06 00:13:15;;;;;;;0.85;0.30;;;;;;;;;;5056647;28;20037;-64
2022/04/06 00:15:42;;;;;;;0.52;0.30;;;;;;;;;;5038546;28;20107;-63
2022/04/06 00:18:09;;;;;;;0.85;0.30;;;;;;;;;;5028079;28;20037;-63
2022/04/06 00:20:36;;;;;;;0.65;0.32;;;;;;;;;;5030047;28;20084;-63
2022/04/06 00:23:03;;;;;;;1.30;0.32;;;;;;;;;;5036866;28;20047;-63
2022/04/06 00:25:30;;;;;;;2.80;0.40;;;;;;;;;;5041278;28;20037;-65
2022/04/06 00:27:59;;;;;;;1.45;0.30;;;;;;;;;;5043708;28;20072;-63
2022/04/06 00:30:25;;;;;;;0.70;0.30;;;;;;;;;;5042158;28;20466;-64
2022/04/06 00:32:52;;;;;;;0.47;0.30;;;;;;;;;;5042256;28;20025;-64
2022/04/06 00:35:28;;;;;;;0.57;0.30;;;;;;;;;;5041782;28;20590;-63
2022/04/06 00:37:55;;;;;;;0.30;0.30;;;;;;;;;;5053220;28;20071;-63
2022/04/06 00:40:23;;;;;;;2.40;0.30;;;;;;;;;;5041424;28;20040;-62
2022/04/06 00:42:50;;;;;;;0.32;0.30;;;;;;;;;;5043243;28;20056;-63
2022/04/06 00:45:17;;;;;;;0.88;0.30;;;;;;;;;;5042459;28;20048;-64
2022/04/06 00:47:44;;;;;;;0.55;0.30;;;;;;;;;;5042003;28;20039;-63
2022/04/06 00:50:11;;;;;;;0.80;0.43;;;;;;;;;;5043733;28;20037;-64
2022/04/06 00:52:39;;;;;;;2.30;0.50;;;;;;;;;;5033138;28;20037;-64
2022/04/06 00:55:06;;;;;;;1.25;0.43;;;;;;;;;;5042982;28;20036;-63
2022/04/06 00:57:33;;;;;;;1.77;0.70;;;;;;;;;;5042806;28;20613;-64
2022/04/06 01:00:00;;;;;;;1.15;0.30;;;;;;;;;;5042721;28;20171;-65
2022/04/06 01:02:27;;;;;;;0.77;0.40;;;;;;;;;;5041213;28;20112;-64
2022/04/06 01:04:53;;;;;;;2.28;0.45;;;;;;;;;;5017255;28;20504;-64
2022/04/06 01:07:22;;;;;;;0.30;0.30;;;;;;;;;;5038983;28;20083;-64
2022/04/06 01:09:49;;;;;;;0.82;0.32;;;;;;;;;;5032946;28;20048;-64
2022/04/06 01:12:16;;;;;;;1.00;0.40;;;;;;;;;;5042791;28;20041;-63
2022/04/06 01:14:43;;;;;;;3.20;0.50;;;;;;;;;;5042890;28;20516;-64
2022/04/06 01:17:10;;;;;;;0.70;0.30;;;;;;;;;;5034429;28;20049;-64
2022/04/06 01:19:44;;;;;;;1.58;0.50;;;;;;;;;;5038146;28;20078;-64
2022/04/06 01:22:17;;;;;;;0.30;0.30;;;;;;;;;;5037837;28;20378;-64
2022/04/06 01:24:45;;;;;;;1.23;0.50;;;;;;;;;;5026999;28;20103;-63
2022/04/06 01:27:11;;;;;;;0.73;0.40;;;;;;;;;;5037550;28;20048;-63
2022/04/06 01:29:40;;;;;;;0.65;0.40;;;;;;;;;;5042988;28;20099;-63
2022/04/06 01:32:20;;;;;;;1.05;0.38;;;;;;;;;;5028080;28;20072;-64
2022/04/06 01:34:47;;;;;;;1.70;0.40;;;;;;;;;;5042953;28;20041;-63
2022/04/06 01:37:14;;;;;;;0.60;0.30;;;;;;;;;;5025393;28;20376;-64
2022/04/06 01:39:42;;;;;;;0.98;0.40;;;;;;;;;;5023002;28;20048;-64
2022/04/06 01:42:10;;;;;;;1.90;0.60;;;;;;;;;;5048460;28;20036;-63
2022/04/06 01:44:36;;;;;;;1.38;0.50;;;;;;;;;;5047000;28;20048;-64
2022/04/06 01:47:05;;;;;;;1.70;0.45;;;;;;;;;;5047532;28;20045;-63
2022/04/06 01:52:17;;;;;;;1.15;0.47;;;;;;;;;;5059013;28;20127;-63
2022/04/06 01:54:45;;;;;;;4.15;0.50;;;;;;;;;;5034145;28;20546;-64
2022/04/06 01:57:12;;;;;;;0.90;0.52;;;;;;;;;;5045476;28;20044;-64
2022/04/06 01:59:39;;;;;;;0.95;0.40;;;;;;;;;;5040325;28;20029;-63
2022/04/06 02:02:06;;;;;;;0.77;0.38;;;;;;;;;;5028875;28;20064;-63
2022/04/06 02:04:33;;;;;;;5.18;0.40;;;;;;;;;;5042964;28;20053;-64
2022/04/06 02:07:00;;;;;;;0.80;0.40;;;;;;;;;;5044326;28;20045;-64
2022/04/06 02:09:27;;;;;;;1.25;0.40;;;;;;;;;;5044994;28;20641;-64
2022/04/06 02:11:54;;;;;;;1.33;0.40;;;;;;;;;;5045809;28;20036;-64
2022/04/06 02:14:21;;;;;;;1.85;0.50;;;;;;;;;;5042829;28;20124;-64
2022/04/06 02:16:48;;;;;;;4.20;0.60;;;;;;;;;;5021304;28;20053;-64
2022/04/06 02:19:15;;;;;;;2.95;0.50;;;;;;;;;;5038803;28;20033;-64
2022/04/06 02:21:42;;;;;;;2.13;0.63;;;;;;;;;;5045667;28;20041;-65
2022/04/06 02:24:08;;;;;;;3.88;0.60;;;;;;;;;;5043523;28;20057;-64
2022/04/06 02:26:35;;;;;;;1.50;0.50;;;;;;;;;;5043756;28;20041;-64
2022/04/06 02:29:02;;;;;;;1.08;0.40;;;;;;;;;;5044605;28;20041;-64
2022/04/06 02:31:29;;;;;;;1.35;0.40;;;;;;;;;;5034061;28;20057;-64
2022/04/06 02:33:56;;;;;;;5.75;0.52;;;;;;;;;;5043730;28;20041;-65
2022/04/06 02:36:23;;;;;;;4.35;0.60;;;;;;;;;;5043705;28;20043;-62
2022/04/06 02:38:50;;;;;;;1.45;0.43;;;;;;;;;;5044008;28;20047;-64
2022/04/06 02:41:16;;;;;;;1.15;0.47;;;;;;;;;;5044900;28;20071;-64
2022/04/06 02:43:43;;;;;;;6.35;0.80;;;;;;;;;;5043891;28;20061;-64
2022/04/06 02:46:10;;;;;;;4.50;0.70;;;;;;;;;;5029987;28;20041;-64
2022/04/06 02:48:37;;;;;;;2.50;0.50;;;;;;;;;;5043364;28;20037;-64
2022/04/06 02:51:04;;;;;;;4.35;0.70;;;;;;;;;;5044993;28;20069;-65
2022/04/06 02:53:31;;;;;;;1.85;0.40;;;;;;;;;;5042448;28;20397;-64
2022/04/06 02:55:57;;;;;;;2.55;0.57;;;;;;;;;;5054811;28;20468;-64
2022/04/06 02:58:24;;;;;;;2.20;0.50;;;;;;;;;;5042223;28;20075;-64
2022/04/06 03:00:51;;;;;;;3.75;0.50;;;;;;;;;;5043024;28;20033;-65
2022/04/06 03:03:18;;;;;;;1.10;0.47;;;;;;;;;;5043254;28;20052;-65
2022/04/06 03:05:44;;;;;;;1.25;0.50;;;;;;;;;;5041907;28;20061;-64
2022/04/06 03:08:11;;;;;;;1.50;0.40;;;;;;;;;;5043556;28;20124;-65
2022/04/06 03:10:38;;;;;;;1.95;0.40;;;;;;;;;;5043668;28;20064;-65
2022/04/06 03:13:05;;;;;;;1.65;0.50;;;;;;;;;;5059068;28;20033;-64
2022/04/06 03:15:31;;;;;;;1.17;0.47;;;;;;;;;;5041576;28;20143;-64
2022/04/06 03:17:58;;;;;;;1.00;0.40;;;;;;;;;;5028456;28;20042;-64
2022/04/06 03:20:25;;;;;;;1.63;0.50;;;;;;;;;;5073665;28;20056;-63
2022/04/06 03:22:52;;;;;;;3.03;0.60;;;;;;;;;;5046528;28;20118;-64
2022/04/06 03:25:18;;;;;;;2.28;0.47;;;;;;;;;;5045452;28;20063;-64
2022/04/06 03:27:45;;;;;;;4.88;0.52;;;;;;;;;;5024007;28;20081;-63
2022/04/06 03:30:12;;;;;;;3.58;0.50;;;;;;;;;;5023903;28;20425;-63
2022/04/06 03:32:39;;;;;;;3.08;0.60;;;;;;;;;;5043821;28;20029;-64
2022/04/06 03:35:07;;;;;;;1.40;0.40;;;;;;;;;;5045391;28;20044;-65
2022/04/06 03:37:34;;;;;;;1.25;0.40;;;;;;;;;;5043767;28;20420;-65
2022/04/06 03:40:01;;;;;;;1.60;0.40;;;;;;;;;;5044522;28;20041;-64
2022/04/06 03:42:28;;;;;;;1.40;0.40;;;;;;;;;;5045001;28;20048;-65
2022/04/06 03:44:55;;;;;;;4.28;0.60;;;;;;;;;;5044777;28;20045;-64
2022/04/06 03:47:28;;;;;;;6.43;0.70;;;;;;;;;;5044040;28;20036;-64
2022/04/06 03:49:54;;;;;;;2.22;0.57;;;;;;;;;;5046644;28;20151;-64
2022/04/06 03:52:21;;;;;;;4.78;0.70;;;;;;;;;;5056428;28;20076;-64
2022/04/06 03:54:48;;;;;;;3.53;0.60;;;;;;;;;;5029366;28;20076;-63
2022/04/06 03:57:15;;;;;;;2.38;0.57;;;;;;;;;;5039596;28;20033;-63
2022/04/06 03:59:41;;;;;;;2.03;0.60;;;;;;;;;;5031363;28;20045;-65
2022/04/06 04:02:08;;;;;;;2.30;0.70;;;;;;;;;;5038989;28;20064;-64
2022/04/06 04:04:35;;;;;;;1.67;0.50;;;;;;;;;;5054738;28;20134;-65
2022/04/06 04:07:01;;;;;;;1.42;0.50;;;;;;;;;;5043934;28;20115;-64
2022/04/06 04:09:31;;;;;;;1.00;0.40;;;;;;;;;;5045752;28;20505;-64
2022/04/06 04:11:58;;;;;;;6.30;0.77;;;;;;;;;;5044298;28;20045;-65
2022/04/06 04:14:25;;;;;;;1.50;0.50;;;;;;;;;;5043324;28;20568;-65
2022/04/06 04:16:52;;;;;;;3.47;0.77;;;;;;;;;;5044402;28;20068;-63
2022/04/06 04:19:19;;;;;;;1.90;0.57;;;;;;;;;;5044572;28;20223;-62
2022/04/06 04:21:45;;;;;;;5.35;0.60;;;;;;;;;;5044780;28;20048;-64
2022/04/06 04:24:12;;;;;;;2.20;0.60;;;;;;;;;;5043463;28;20607;-64
2022/04/06 04:26:39;;;;;;;1.73;0.55;;;;;;;;;;5043108;28;20123;-64
2022/04/06 04:29:09;;;;;;;7.65;0.60;;;;;;;;;;5043495;28;20056;-64
2022/04/06 04:31:36;;;;;;;1.73;0.50;;;;;;;;;;5041525;28;20557;-63
2022/04/06 04:34:03;;;;;;;1.65;0.50;;;;;;;;;;5035752;28;20069;-64
2022/04/06 04:36:30;;;;;;;1.15;0.50;;;;;;;;;;5025316;28;20840;-64
2022/04/06 04:38:57;;;;;;;2.40;0.50;;;;;;;;;;5043817;28;20049;-64
2022/04/06 04:41:24;;;;;;;1.45;0.50;;;;;;;;;;5041737;28;20036;-64
2022/04/06 04:43:51;;;;;;;1.58;0.50;;;;;;;;;;5054800;28;20367;-64
2022/04/06 04:46:19;;;;;;;1.70;0.60;;;;;;;;;;5043059;28;20128;-63
2022/04/06 04:48:46;;;;;;;2.95;0.50;;;;;;;;;;5041641;28;20029;-64
2022/04/06 04:51:13;;;;;;;2.67;0.63;;;;;;;;;;5042232;28;20072;-64
2022/04/06 04:53:41;;;;;;;5.80;0.60;;;;;;;;;;5042162;28;20064;-63
2022/04/06 04:56:08;;;;;;;2.90;0.55;;;;;;;;;;5042224;28;20038;-64
2022/04/06 04:58:36;;;;;;;1.33;0.50;;;;;;;;;;5042034;28;20145;-64
2022/04/06 05:01:02;;;;;;;4.55;0.60;;;;;;;;;;5042526;28;20044;-63
2022/04/06 05:03:29;;;;;;;4.25;0.57;;;;;;;;;;5041351;28;20036;-63
2022/04/06 05:05:57;;;;;;;3.00;0.50;;;;;;;;;;5041941;28;20040;-63
2022/04/06 05:08:24;;;;;;;0.85;0.40;;;;;;;;;;5020996;28;20045;-62
2022/04/06 05:10:51;;;;;;;1.67;0.47;;;;;;;;;;5039985;28;20032;-64
2022/04/06 05:13:17;;;;;;;3.10;0.60;;;;;;;;;;5043045;28;20102;-63
2022/04/06 05:15:47;;;;;;;1.05;0.47;;;;;;;;;;5040315;28;20045;-64
2022/04/06 05:18:14;;;;;;;5.63;0.50;;;;;;;;;;5043617;28;20072;-63
2022/04/06 05:20:41;;;;;;;4.18;0.60;;;;;;;;;;5040592;28;20511;-64
2022/04/06 05:23:08;;;;;;;2.92;0.70;;;;;;;;;;5034353;28;20128;-64
2022/04/06 05:25:34;;;;;;;6.25;0.90;;;;;;;;;;5040818;28;20073;-63
2022/04/06 05:28:01;;;;;;;1.92;0.50;;;;;;;;;;5055124;28;20493;-62
2022/04/06 05:30:29;;;;;;;1.98;0.65;;;;;;;;;;5041940;28;20032;-64
2022/04/06 05:32:57;;;;;;;1.85;0.52;;;;;;;;;;5031521;28;20092;-64
2022/04/06 05:35:26;;;;;;;2.30;0.50;;;;;;;;;;5039928;28;20044;-64
2022/04/06 05:37:53;;;;;;;6.95;1.08;;;;;;;;;;5043364;28;20048;-63
2022/04/06 05:40:20;;;;;;;4.65;0.60;;;;;;;;;;5034026;28;20041;-65
2022/04/06 05:42:47;;;;;;;0.68;0.40;;;;;;;;;;5043356;28;20072;-63
2022/04/06 05:45:14;;;;;;;1.17;0.50;;;;;;;;;;5035462;28;20054;-63
2022/04/06 05:47:42;;;;;;;1.33;0.45;;;;;;;;;;5031462;28;22515;-62
2022/04/06 05:50:10;;;;;;;1.10;0.40;;;;;;;;;;5042594;28;20037;-62
2022/04/06 05:52:37;;;;;;;2.00;0.60;;;;;;;;;;5040984;28;20036;-63
2022/04/06 05:55:04;;;;;;;2.85;0.60;;;;;;;;;;5039822;28;20055;-63
2022/04/06 05:57:31;;;;;;;2.85;0.50;;;;;;;;;;5040054;28;20098;-64
2022/04/06 05:59:57;;;;;;;1.42;0.45;;;;;;;;;;5040472;28;20124;-63
2022/04/06 06:02:24;;;;;;;3.25;0.60;;;;;;;;;;5029830;28;20041;-63
2022/04/06 06:04:54;;;;;;;1.75;0.50;;;;;;;;;;5041314;28;20056;-62
2022/04/06 06:07:21;;;;;;;1.77;0.50;;;;;;;;;;5034439;28;20038;-64
2022/04/06 06:09:48;;;;;;;2.85;0.55;;;;;;;;;;5043212;28;20126;-64
2022/04/06 06:12:14;;;;;;;1.55;0.50;;;;;;;;;;5042928;28;20128;-64
2022/04/06 06:14:42;;;;;;;1.60;0.40;;;;;;;;;;5031932;28;20051;-63
2022/04/06 06:17:09;;;;;;;0.77;0.30;;;;;;;;;;5041058;28;20548;-62
2022/04/06 06:19:35;;;;;;;1.83;0.63;;;;;;;;;;5041939;28;20176;-62
2022/04/06 06:22:02;;;;;;;1.88;0.50;;;;;;;;;;5039706;28;20527;-62
2022/04/06 06:24:29;;;;;;;1.20;0.45;;;;;;;;;;5030405;28;20827;-63
2022/04/06 06:26:56;;;;;;;3.05;0.45;;;;;;;;;;5042918;28;20371;-61
2022/04/06 06:29:23;;;;;;;1.58;0.40;;;;;;;;;;5044670;28;20041;-63
2022/04/06 06:31:49;;;;;;;0.95;0.40;;;;;;;;;;5046775;28;20110;-63
2022/04/06 06:34:16;;;;;;;0.55;0.30;;;;;;;;;;5045865;28;20067;-62
2022/04/06 06:36:43;;;;;;;3.28;0.60;;;;;;;;;;5045640;28;20044;-63
2022/04/06 06:39:10;;;;;;;1.15;0.45;;;;;;;;;;5049145;28;20039;-63
2022/04/06 06:41:37;;;;;;;1.45;0.40;;;;;;;;;;5046258;28;20037;-63
2022/04/06 06:44:03;;;;;;;4.43;0.50;;;;;;;;;;5028407;28;20056;-63
2022/04/06 06:46:31;;;;;;;1.45;0.45;;;;;;;;;;5045186;28;20036;-62
2022/04/06 06:49:03;;;;;;;3.97;0.40;;;;;;;;;;5048769;28;20037;-62
2022/04/06 06:51:33;;;;;;;1.20;0.50;;;;;;;;;;5046503;28;20045;-62
2022/04/06 06:54:01;;;;;;;1.40;0.45;;;;;;;;;;5048166;28;20076;-63
2022/04/06 06:56:28;;;;;;;1.15;0.40;;;;;;;;;;5047111;28;20055;-63
2022/04/06 06:58:54;;;;;;;1.42;0.40;;;;;;;;;;5045785;28;20029;-63
2022/04/06 07:01:21;;;;;;;1.08;0.40;;;;;;;;;;5046577;28;20147;-63
2022/04/06 07:03:48;;;;;;;1.15;0.50;;;;;;;;;;5044840;28;20057;-63
2022/04/06 07:06:15;;;;;;;2.60;0.40;;;;;;;;;;5044124;28;20033;-62
2022/04/06 07:08:42;;;;;;;0.52;0.32;;;;;;;;;;5046051;28;20052;-63
2022/04/06 07:11:09;;;;;;;1.38;0.30;;;;;;;;;;5045632;28;20040;-63
2022/04/06 07:13:36;;;;;;;1.58;0.40;;;;;;;;;;5044461;28;20052;-62
2022/04/06 07:16:05;;;;;;;0.90;0.40;;;;;;;;;;5045388;28;20044;-63
2022/04/06 07:18:33;;;;;;;1.25;0.40;;;;;;;;;;5044250;28;20041;-62
2022/04/06 07:21:01;;;;;;;1.08;0.40;;;;;;;;;;5042609;28;20079;-63
2022/04/06 07:23:27;;;;;;;0.43;0.30;;;;;;;;;;5042652;28;20817;-63
2022/04/06 07:25:54;;;;;;;1.45;0.40;;;;;;;;;;5043888;28;20044;-62
2022/04/06 07:28:20;;;;;;;1.55;0.40;;;;;;;;;;5043521;28;20123;-62
2022/04/06 07:30:47;;;;;;;2.55;0.50;;;;;;;;;;5044751;28;20033;-63
2022/04/06 07:33:14;;;;;;;1.75;0.40;;;;;;;;;;5046089;28;20041;-63
2022/04/06 07:35:41;;;;;;;0.65;0.35;;;;;;;;;;5045231;28;20076;-62
2022/04/06 07:38:08;;;;;;;1.30;0.40;;;;;;;;;;5042837;28;20090;-62
2022/04/06 07:40:35;;;;;;;1.33;0.40;;;;;;;;;;5044266;28;20036;-63
2022/04/06 07:43:02;;;;;;;0.85;0.38;;;;;;;;;;5037538;28;20082;-62
2022/04/06 07:45:28;;;;;;;0.88;0.30;;;;;;;;;;5042269;28;20051;-62
2022/04/06 07:47:55;;;;;;;2.65;0.40;;;;;;;;;;5044527;28;20099;-62
2022/04/06 07:50:22;;;;;;;0.98;0.38;;;;;;;;;;5043351;28;20056;-64
2022/04/06 07:52:49;;;;;;;0.68;0.30;;;;;;;;;;5036101;28;20066;-62
2022/04/06 07:55:16;;;;;;;1.02;0.40;;;;;;;;;;5045279;28;20099;-62
2022/04/06 07:57:43;;;;;;;1.38;0.40;;;;;;;;;;5053403;28;20394;-62
2022/04/06 08:00:11;;;;;;;0.80;0.40;;;;;;;;;;5043141;28;20426;-62
2022/04/06 08:02:38;;;;;;;4.78;0.50;;;;;;;;;;5042083;28;20040;-62
2022/04/06 08:05:05;;;;;;;0.95;0.43;;;;;;;;;;5058002;28;20659;-63
2022/04/06 08:07:32;;;;;;;7.05;0.50;;;;;;;;;;5044458;28;20045;-62
2022/04/06 08:09:59;;;;;;;0.47;0.30;;;;;;;;;;5058384;28;20040;-63
2022/04/06 08:12:26;;;;;;;0.47;0.30;;;;;;;;;;5041630;28;20064;-62
2022/04/06 08:14:53;;;;;;;0.65;0.30;;;;;;;;;;5043977;28;20120;-62
2022/04/06 08:17:19;;;;;;;1.45;0.32;;;;;;;;;;5043781;28;20086;-61
2022/04/06 08:19:46;;;;;;;0.40;0.30;;;;;;;;;;5043083;28;20048;-62
2022/04/06 08:22:13;;;;;;;1.05;0.30;;;;;;;;;;5042325;28;20044;-62
2022/04/06 08:24:39;;;;;;;0.52;0.30;;;;;;;;;;5029021;28;20049;-62
2022/04/06 08:27:06;;;;;;;1.30;0.38;;;;;;;;;;5019746;28;20429;-63
2022/04/06 08:29:33;;;;;;;1.35;0.30;;;;;;;;;;5056489;28;20079;-63
2022/04/06 08:32:00;;;;;;;1.00;0.40;;;;;;;;;;5044520;28;20408;-63
2022/04/06 08:34:27;;;;;;;1.30;0.40;;;;;;;;;;5040673;28;20033;-64
2022/04/06 08:36:53;;;;;;;1.67;0.50;;;;;;;;;;5041818;28;21046;-62
2022/04/06 08:39:20;;;;;;;1.77;0.40;;;;;;;;;;5043427;28;20493;-62
2022/04/06 08:41:47;;;;;;;0.55;0.30;;;;;;;;;;5034735;28;20051;-62
2022/04/06 08:44:16;;;;;;;0.63;0.35;;;;;;;;;;5042524;28;20045;-63
2022/04/06 08:46:45;;;;;;;1.00;0.43;;;;;;;;;;5041928;28;20127;-63
2022/04/06 08:49:12;;;;;;;1.65;0.40;;;;;;;;;;5042198;28;20041;-63
2022/04/06 08:51:40;;;;;;;0.82;0.32;;;;;;;;;;5030586;28;20092;-63
2022/04/06 08:54:08;;;;;;;5.40;0.35;;;;;;;;;;5036664;28;20041;-63
2022/04/06 08:56:34;;;;;;;0.57;0.30;;;;;;;;;;5044205;28;20040;-62
2022/04/06 08:59:01;;;;;;;0.98;0.30;;;;;;;;;;5042291;28;20040;-61
2022/04/06 09:01:31;;;;;;;1.55;0.30;;;;;;;;;;5042466;28;20116;-62
2022/04/06 09:04:00;;;;;;;10.23;0.40;;;;;;;;;;5042067;28;20155;-63
2022/04/06 09:06:29;;;;;;;0.47;0.30;;;;;;;;;;5041390;28;20033;-63
2022/04/06 09:08:56;;;;;;;0.80;0.38;;;;;;;;;;5033560;28;20037;-62
2022/04/06 09:11:23;;;;;;;0.77;0.40;;;;;;;;;;5040552;28;20029;-63
2022/04/06 09:13:58;;;;;;;1.30;0.40;;;;;;;;;;5042038;28;20136;-63
2022/04/06 09:16:31;;;;;;;1.33;0.40;;;;;;;;;;5041348;28;20049;-64
2022/04/06 09:19:07;;;;;;;2.13;0.35;;;;;;;;;;5042088;28;20563;-64
2022/04/06 09:21:39;;;;;;;1.40;0.40;;;;;;;;;;5037712;28;20045;-64
2022/04/06 09:26:42;;;;;;;1.20;0.40;;;;;;;;;;4874429;22;20054;-60
2022/04/06 09:29:13;;;;;;;0.60;0.35;;;;;;;;;;4972952;28;20050;-60
2022/04/06 09:31:41;;;;;;;0.63;0.35;;;;;;;;;;4972757;28;20065;-63
2022/04/06 09:34:12;;;;;;;3.45;0.40;;;;;;;;;;4978204;28;20039;-60
2022/04/06 09:36:39;;;;;;;1.73;0.50;;;;;;;;;;4972686;28;20739;-61
2022/04/06 09:39:07;;;;;;;3.08;0.65;;;;;;;;;;4970190;28;20046;-61
2022/04/06 09:41:34;;;;;;;5.88;0.50;;;;;;;;;;4979482;28;20045;-62
2022/04/06 09:47:38;;;;;;;1.30;0.50;;;;;;;;;;4969176;28;20460;-59
2022/04/06 09:50:19;;;;;;;4.55;0.50;;;;;;;;;;4992312;28;20048;-61
2022/04/06 09:52:46;;;;;;;0.85;0.40;;;;;;;;;;4991792;28;20100;-60
2022/04/06 09:55:14;;;;;;;1.38;0.40;;;;;;;;;;4993481;28;20054;-62
2022/04/06 09:57:42;;;;;;;1.77;0.50;;;;;;;;;;4983160;28;20049;-62
2022/04/06 10:00:11;;;;;;;0.85;0.40;;;;;;;;;;4978722;28;20782;-62
2022/04/06 10:02:38;;;;;;;0.80;0.32;;;;;;;;;;4973140;28;20085;-61
2022/04/06 10:05:05;;;;;;;0.43;0.35;;;;;;;;;;4990032;28;20113;-62
2022/04/06 10:07:32;;;;;;;0.90;0.38;;;;;;;;;;4960764;28;20035;-60
2022/04/06 10:09:59;;;;;;;1.10;0.43;;;;;;;;;;4970389;28;20054;-62
2022/04/06 10:12:27;;;;;;;0.45;0.30;;;;;;;;;;4970087;28;20392;-60
2022/04/06 10:14:54;;;;;;;3.92;0.38;;;;;;;;;;4969815;28;20435;-61
2022/04/06 10:17:22;;;;;;;0.38;0.30;;;;;;;;;;4972075;28;20507;-62
2022/04/06 10:19:53;;;;;;;1.10;0.38;;;;;;;;;;4971289;28;20426;-62
2022/04/06 10:22:26;;;;;;;0.98;0.45;;;;;;;;;;4968458;28;20142;-65
2022/04/06 10:25:08;;;;;;;2.90;0.50;;;;;;;;;;4970630;28;20098;-62
2022/04/06 10:27:43;;;;;;;1.60;0.40;;;;;;;;;;4969657;28;20095;-62
2022/04/06 10:30:31;;;;;;;3.03;0.40;;;;;;;;;;4970502;28;20057;-62
2022/04/06 10:32:58;;;;;;;0.75;0.32;;;;;;;;;;4989974;28;20394;-61
2022/04/06 10:35:26;;;;;;;1.02;0.32;;;;;;;;;;4986993;28;20038;-62
2022/04/06 10:37:58;;;;;;;0.55;0.30;;;;;;;;;;4990316;28;20117;-61
2022/04/06 10:40:27;;;;;;;0.90;0.32;;;;;;;;;;4980266;28;20061;-62
2022/04/06 10:42:53;;;;;;;2.58;0.40;;;;;;;;;;4989760;28;20057;-61
2022/04/06 10:45:27;;;;;;;1.13;0.38;;;;;;;;;;4989866;28;20086;-60
2022/04/06 10:47:53;;;;;;;;;;;;;;;;;;4990592;28;20667;-61
2022/04/06 10:50:21;;;;;;;1.15;0.40;;;;;;;;;;4988662;28;20389;-61
2022/04/06 10:52:48;;;;;;;1.45;0.32;;;;;;;;;;4988124;28;20042;-61
2022/04/06 10:55:24;;;;;;;0.47;0.30;;;;;;;;;;4989460;28;20124;-60
2022/04/06 10:58:02;;;;;;;0.95;0.38;;;;;;;;;;4988791;28;20046;-61
2022/04/06 11:00:29;;;;;;;0.80;0.40;;;;;;;;;;4984761;28;20038;-62
2022/04/06 11:03:00;;;;;;;0.75;0.30;;;;;;;;;;4976500;28;20038;-62
2022/04/06 11:05:44;;;;;;;0.60;0.30;;;;;;;;;;4982622;28;20523;-60
2022/04/06 11:11:14;;;;;;;1.90;0.60;;;;;;;;;;4994992;28;20072;-62
2022/04/06 11:13:40;;;;;;;0.93;0.35;;;;;;;;;;4994008;28;20054;-62
2022/04/06 11:16:07;;;;;;;0.85;0.30;;;;;;;;;;4996121;28;20113;-61
2022/04/06 11:18:47;;;;;;;0.38;0.30;;;;;;;;;;4995703;28;20072;-63
2022/04/06 11:21:15;;;;;;;4.03;0.40;;;;;;;;;;4989317;28;20590;-61
2022/04/06 11:23:42;;;;;;;0.98;0.43;;;;;;;;;;4985660;28;20165;-61
2022/04/06 11:26:09;;;;;;;4.60;0.50;;;;;;;;;;4985330;28;20046;-60
2022/04/06 11:28:36;;;;;;;0.38;0.30;;;;;;;;;;4994350;28;20038;-61
2022/04/06 11:31:03;;;;;;;1.20;0.30;;;;;;;;;;4996215;28;20048;-60
2022/04/06 11:33:40;;;;;;;0.35;0.30;;;;;;;;;;4985386;28;20040;-60
2022/04/06 11:36:14;;;;;;;7.38;0.50;;;;;;;;;;4961831;28;20034;-62
2022/04/06 11:38:41;;;;;;;0.70;0.38;;;;;;;;;;4995930;28;20045;-62
2022/04/06 11:41:08;;;;;;;0.30;0.30;;;;;;;;;;4996480;28;20048;-60
2022/04/06 11:43:41;;;;;;;1.98;0.43;;;;;;;;;;4983633;28;20065;-60
2022/04/06 11:46:08;;;;;;;0.60;0.30;;;;;;;;;;4996775;28;20041;-61
2022/04/06 11:48:45;;;;;;;1.60;0.50;;;;;;;;;;4995360;28;20069;-62
2022/04/06 11:51:12;;;;;;;0.60;0.30;;;;;;;;;;4995346;28;20038;-61
2022/04/06 11:53:39;;;;;;;0.95;0.30;;;;;;;;;;4996475;28;20034;-62
2022/04/06 11:56:05;;;;;;;0.93;0.30;;;;;;;;;;4996264;28;20038;-62
2022/04/06 11:58:33;;;;;;;0.47;0.30;;;;;;;;;;4994550;28;20030;-62
2022/04/06 12:01:04;;;;;;;0.50;0.30;;;;;;;;;;4994669;28;20736;-60
2022/04/06 12:03:31;;;;;;;0.70;0.38;;;;;;;;;;4994937;28;20046;-63
2022/04/06 12:05:58;;;;;;;1.60;0.43;;;;;;;;;;4981322;28;20078;-61
2022/04/06 12:08:25;;;;;;;3.58;0.70;;;;;;;;;;4990348;28;20213;-61
2022/04/06 12:10:52;;;;;;;1.00;0.30;;;;;;;;;;4983206;28;20105;-60
2022/04/06 12:13:20;;;;;;;2.58;0.60;;;;;;;;;;4975875;28;20041;-62
2022/04/06 12:15:48;;;;;;;1.65;0.60;;;;;;;;;;4999453;28;20038;-62
2022/04/06 12:18:25;;;;;;;0.75;0.40;;;;;;;;;;4987783;28;20038;-60
2022/04/06 12:20:52;;;;;;;0.95;0.38;;;;;;;;;;4973995;28;20046;-59
2022/04/06 12:23:20;;;;;;;0.80;0.32;;;;;;;;;;4986697;28;20037;-61
2022/04/06 12:25:47;;;;;;;2.65;0.70;;;;;;;;;;4986611;28;20073;-60
2022/04/06 12:28:15;;;;;;;2.03;0.60;;;;;;;;;;4977455;28;20164;-62
2022/04/06 12:31:08;;;;;;;3.70;0.50;;;;;;;;;;4971792;28;20045;-63
2022/04/06 12:33:41;;;;;;;4.18;0.60;;;;;;;;;;4974383;28;20103;-62
2022/04/06 12:36:22;;;;;;;0.30;0.30;;;;;;;;;;4989241;28;21521;-61
2022/04/06 12:39:06;;;;;;;0.63;0.30;;;;;;;;;;4997263;28;20429;-62
2022/04/06 12:41:34;;;;;;;0.93;0.40;;;;;;;;;;4989259;28;20050;-61
2022/04/06 12:44:04;;;;;;;2.72;0.40;;;;;;;;;;4976931;28;20058;-60
2022/04/06 12:46:43;;;;;;;5.75;0.55;;;;;;;;;;4975675;28;20121;-62
2022/04/06 12:49:21;;;;;;;0.88;0.30;;;;;;;;;;4983095;28;20153;-62
2022/04/06 12:51:49;;;;;;;3.10;0.40;;;;;;;;;;4991053;28;20539;-63
2022/04/06 12:54:17;;;;;;;0.85;0.35;;;;;;;;;;4984367;28;20133;-62
2022/04/06 12:57:02;;;;;;;0.65;0.30;;;;;;;;;;4970139;28;20042;-61
2022/04/06 12:59:36;;;;;;;1.60;0.50;;;;;;;;;;4969595;28;20049;-62
2022/04/06 13:02:04;;;;;;;0.85;0.40;;;;;;;;;;4970810;28;20133;-60
2022/04/06 13:04:31;;;;;;;4.22;0.60;;;;;;;;;;4968201;28;20475;-61
2022/04/06 13:06:58;;;;;;;3.13;0.40;;;;;;;;;;4968425;28;20093;-62
2022/04/06 13:09:24;;;;;;;1.02;0.40;;;;;;;;;;4962319;28;20065;-63
2022/04/06 13:11:51;;;;;;;1.50;0.40;;;;;;;;;;4968624;28;20042;-62
2022/04/06 13:14:20;;;;;;;1.55;0.40;;;;;;;;;;4969250;28;20058;-60
2022/04/06 13:16:47;;;;;;;3.42;0.68;;;;;;;;;;4980587;28;20038;-63
2022/04/06 13:19:15;;;;;;;4.53;0.70;;;;;;;;;;4994743;28;20043;-60
2022/04/06 13:21:42;;;;;;;9.77;0.93;;;;;;;;;;4994789;28;20164;-62
2022/04/06 13:24:09;;;;;;;2.13;0.60;;;;;;;;;;4993775;28;20081;-61
2022/04/06 13:26:36;;;;;;;1.33;0.60;;;;;;;;;;4991661;28;20046;-62
2022/04/06 13:29:02;;;;;;;0.80;0.38;;;;;;;;;;4993384;28;20487;-61
2022/04/06 13:31:29;;;;;;;4.35;0.52;;;;;;;;;;4991972;28;20112;-62
2022/04/06 13:33:56;;;;;;;3.58;0.70;;;;;;;;;;4988146;28;20625;-61
2022/04/06 13:36:23;;;;;;;1.50;0.50;;;;;;;;;;4965895;28;20050;-60
2022/04/06 13:38:53;;;;;;;4.80;0.65;;;;;;;;;;4991315;28;22038;-62
2022/04/06 13:41:19;;;;;;;2.00;0.60;;;;;;;;;;4992926;28;20054;-62
2022/04/06 13:43:46;;;;;;;2.50;0.60;;;;;;;;;;4982900;28;20045;-60
2022/04/06 13:46:13;;;;;;;2.78;0.55;;;;;;;;;;4972927;28;20038;-61
2022/04/06 13:48:40;;;;;;;7.45;0.88;;;;;;;;;;4982850;28;20043;-61
2022/04/06 13:51:06;;;;;;;10.27;1.02;;;;;;;;;;4969523;28;20141;-61
2022/04/06 13:53:33;;;;;;;8.10;0.90;;;;;;;;;;4990334;28;20047;-62
2022/04/06 13:56:00;;;;;;;4.90;0.70;;;;;;;;;;4973167;28;20085;-61
2022/04/06 13:58:27;;;;;;;6.72;0.90;;;;;;;;;;4971884;28;20419;-61
2022/04/06 14:00:55;;;;;;;0.73;0.30;;;;;;;;;;4976756;28;20041;-63
2022/04/06 14:03:22;;;;;;;4.03;0.50;;;;;;;;;;4987434;28;20098;-62
2022/04/06 14:05:51;;;;;;;2.13;0.50;;;;;;;;;;4980216;28;20469;-62
2022/04/06 14:08:17;;;;;;;2.42;0.43;;;;;;;;;;4969589;28;20487;-62
2022/04/06 14:10:44;;;;;;;3.30;0.70;;;;;;;;;;4968350;28;20521;-62
2022/04/06 14:13:11;;;;;;;1.23;0.40;;;;;;;;;;4968009;28;20105;-62
2022/04/06 14:15:38;;;;;;;1.38;0.30;;;;;;;;;;4969457;28;20050;-62
2022/04/06 14:18:05;;;;;;;3.58;0.57;;;;;;;;;;4968389;28;20047;-61
2022/04/06 14:20:31;;;;;;;1.75;0.50;;;;;;;;;;4967605;28;20053;-62
2022/04/06 14:22:58;;;;;;;1.42;0.50;;;;;;;;;;4969354;28;20043;-61
2022/04/06 14:25:25;;;;;;;6.50;0.70;;;;;;;;;;4967557;28;20065;-62
2022/04/06 14:27:52;;;;;;;3.60;0.57;;;;;;;;;;4968240;28;20082;-62
2022/04/06 14:30:22;;;;;;;2.28;0.45;;;;;;;;;;4969217;28;20058;-62
2022/04/06 14:32:49;;;;;;;1.13;0.40;;;;;;;;;;4986241;28;20038;-62
2022/04/06 14:35:17;;;;;;;1.35;0.45;;;;;;;;;;4982996;28;20038;-62
2022/04/06 14:37:44;;;;;;;3.17;0.43;;;;;;;;;;4971498;28;20038;-62
2022/04/06 14:40:11;;;;;;;3.70;0.50;;;;;;;;;;4974639;28;20047;-62
2022/04/06 14:42:38;;;;;;;1.30;0.38;;;;;;;;;;4979793;28;20121;-60
2022/04/06 14:45:08;;;;;;;1.35;0.40;;;;;;;;;;4975926;28;20137;-62
2022/04/06 14:47:37;;;;;;;5.57;0.50;;;;;;;;;;4973905;28;20074;-62
2022/04/06 14:50:05;;;;;;;1.50;0.47;;;;;;;;;;4983773;28;20459;-62
2022/04/06 14:52:32;;;;;;;4.63;0.50;;;;;;;;;;4972323;28;20043;-62
2022/04/06 14:54:59;;;;;;;0.30;0.30;;;;;;;;;;4971440;28;20161;-61
2022/04/06 14:57:25;;;;;;;0.73;0.30;;;;;;;;;;4970264;28;20046;-62
2022/04/06 14:59:52;;;;;;;1.27;0.47;;;;;;;;;;4970011;28;20979;-62